createdAt,value
2018-02-05T00:01:43.031Z,51.80
2018-02-05T00:04:10.591Z,51.80
2018-02-05T00:06:38.132Z,51.80
2018-02-05T00:09:06.460Z,51.70
2018-02-05T00:11:34.014Z,51.70
2018-02-05T00:14:01.548Z,51.70
2018-02-05T00:16:29.088Z,51.70
2018-02-05T00:18:57.420Z,52.30
2018-02-05T00:21:24.984Z,51.80
2018-02-05T00:23:52.531Z,51.70
2018-02-05T00:26:20.071Z,51.70
2018-02-05T00:28:47.610Z,52.20
2018-02-05T00:31:15.907Z,51.80
2018-02-05T00:33:43.477Z,51.70
2018-02-05T00:36:11.010Z,51.80
2018-02-05T00:38:39.318Z,51.70
2018-02-05T00:41:06.853Z,51.80
2018-02-05T00:46:29.658Z,51.70
2018-02-05T00:48:57.196Z,51.70
2018-02-05T00:51:24.738Z,52.30
2018-02-05T00:53:53.035Z,51.80
2018-02-05T00:56:20.581Z,51.80
2018-02-05T00:58:48.902Z,51.80
2018-02-05T01:01:16.441Z,51.80
2018-02-05T01:03:43.980Z,51.70
2018-02-05T01:06:11.519Z,51.80
2018-02-05T01:08:39.826Z,52.30
2018-02-05T01:11:07.367Z,51.80
2018-02-05T01:13:35.670Z,51.60
2018-02-05T01:16:03.236Z,51.60
2018-02-05T01:18:30.769Z,51.60
2018-02-05T01:20:59.081Z,51.60
2018-02-05T01:23:26.619Z,51.60
2018-02-05T01:25:54.150Z,51.60
2018-02-05T01:28:21.703Z,51.60
2018-02-05T01:30:49.233Z,52.20
2018-02-05T01:33:16.791Z,51.70
2018-02-05T01:35:44.319Z,51.60
2018-02-05T01:38:11.847Z,51.70
2018-02-05T01:40:40.159Z,52.30
2018-02-05T01:43:07.687Z,51.80
2018-02-05T01:45:35.274Z,51.70
2018-02-05T01:48:02.816Z,51.70
2018-02-05T01:50:31.125Z,51.80
2018-02-05T01:52:58.654Z,51.80
2018-02-05T01:55:26.969Z,51.70
2018-02-05T01:58:06.454Z,51.70
2018-02-05T02:00:33.995Z,51.70
2018-02-05T02:03:01.529Z,51.70
2018-02-05T02:05:29.836Z,52.30
2018-02-05T02:07:57.369Z,51.70
2018-02-05T02:10:24.935Z,51.70
2018-02-05T02:12:52.471Z,51.50
2018-02-05T02:15:20.010Z,51.60
2018-02-05T02:17:48.306Z,51.70
2018-02-05T02:20:15.853Z,51.70
2018-02-05T02:22:44.189Z,51.80
2018-02-05T02:25:11.726Z,51.80
2018-02-05T02:27:39.263Z,51.70
2018-02-05T02:30:06.804Z,51.70
2018-02-05T02:32:35.115Z,51.70
2018-02-05T02:35:02.693Z,51.70
2018-02-05T02:37:30.229Z,51.80
2018-02-05T02:39:57.758Z,51.90
2018-02-05T02:42:26.051Z,51.90
2018-02-05T02:44:53.582Z,51.90
2018-02-05T02:47:21.170Z,51.90
2018-02-05T02:49:49.471Z,52.00
2018-02-05T02:52:16.999Z,51.90
2018-02-05T02:54:45.302Z,51.90
2018-02-05T02:57:12.849Z,51.90
2018-02-05T02:59:40.416Z,52.10
2018-02-05T03:02:07.969Z,52.00
2018-02-05T03:04:35.509Z,52.10
2018-02-05T03:07:03.808Z,52.10
2018-02-05T03:09:31.340Z,52.10
2018-02-05T03:11:59.665Z,52.70
2018-02-05T03:14:27.199Z,52.00
2018-02-05T03:16:54.739Z,52.10
2018-02-05T03:19:23.042Z,52.10
2018-02-05T03:21:50.599Z,52.10
2018-02-05T03:24:18.160Z,52.10
2018-02-05T03:26:45.704Z,52.00
2018-02-05T03:29:14.004Z,52.10
2018-02-05T03:31:41.530Z,52.10
2018-02-05T03:34:09.056Z,52.10
2018-02-05T03:36:36.613Z,52.30
2018-02-05T03:39:04.183Z,52.10
2018-02-05T03:41:31.735Z,52.10
2018-02-05T03:43:59.274Z,52.10
2018-02-05T03:46:26.819Z,52.10
2018-02-05T03:48:55.316Z,52.00
2018-02-05T03:51:22.855Z,52.00
2018-02-05T03:53:50.392Z,52.10
2018-02-05T03:56:18.691Z,51.80
2018-02-05T03:58:46.239Z,52.20
2018-02-05T04:01:14.567Z,52.30
2018-02-05T04:03:42.095Z,52.30
2018-02-05T04:06:09.623Z,52.40
2018-02-05T04:08:37.155Z,52.50
2018-02-05T04:11:04.703Z,52.50
2018-02-05T04:13:32.254Z,52.50
2018-02-05T04:15:59.779Z,52.40
2018-02-05T04:18:28.078Z,52.60
2018-02-05T04:20:55.616Z,52.50
2018-02-05T04:23:23.907Z,52.70
2018-02-05T04:25:51.466Z,52.70
2018-02-05T04:28:19.005Z,52.70
2018-02-05T04:30:47.309Z,53.10
2018-02-05T04:33:14.843Z,53.10
2018-02-05T04:35:43.142Z,53.20
2018-02-05T04:38:10.702Z,53.20
2018-02-05T04:40:38.242Z,53.30
2018-02-05T04:43:06.850Z,53.30
2018-02-05T04:45:34.398Z,53.30
2018-02-05T04:48:02.694Z,53.40
2018-02-05T04:50:30.255Z,53.30
2018-02-05T04:52:57.802Z,53.20
2018-02-05T04:55:25.343Z,53.30
2018-02-05T04:57:53.648Z,53.60
2018-02-05T05:00:21.192Z,53.20
2018-02-05T05:02:49.519Z,52.90
2018-02-05T05:05:17.048Z,52.90
2018-02-05T05:07:44.591Z,52.90
2018-02-05T05:10:12.125Z,52.80
2018-02-05T05:12:39.659Z,52.80
2018-02-05T05:15:07.218Z,52.60
2018-02-05T05:17:34.751Z,52.60
2018-02-05T05:20:02.292Z,52.70
2018-02-05T05:22:29.828Z,52.60
2018-02-05T05:24:57.363Z,52.60
2018-02-05T05:27:24.922Z,52.50
2018-02-05T05:29:52.454Z,52.60
2018-02-05T05:32:19.987Z,52.60
2018-02-05T05:34:48.278Z,52.40
2018-02-05T05:37:15.816Z,52.40
2018-02-05T05:39:44.164Z,52.60
2018-02-05T05:42:11.701Z,52.50
2018-02-05T05:44:39.230Z,52.60
2018-02-05T05:47:06.975Z,52.50
2018-02-05T05:49:35.271Z,52.50
2018-02-05T05:52:06.872Z,52.40
2018-02-05T05:54:34.444Z,52.50
2018-02-05T05:57:02.047Z,52.50
2018-02-05T05:59:30.527Z,52.40
2018-02-05T06:01:58.054Z,52.40
2018-02-05T06:04:25.696Z,52.10
2018-02-05T06:06:53.489Z,52.20
2018-02-05T06:09:21.043Z,52.30
2018-02-05T06:11:48.591Z,52.30
2018-02-05T06:14:16.129Z,52.60
2018-02-05T06:16:43.699Z,53.10
2018-02-05T06:19:11.230Z,53.60
2018-02-05T06:21:38.770Z,53.90
2018-02-05T06:24:06.304Z,54.50
2018-02-05T06:26:33.835Z,55.00
2018-02-05T06:29:01.392Z,55.30
2018-02-05T06:31:28.930Z,55.50
2018-02-05T06:33:57.226Z,55.90
2018-02-05T06:36:24.773Z,55.90
2018-02-05T06:38:55.588Z,56.00
2018-02-05T06:41:23.152Z,56.40
2018-02-05T06:43:50.679Z,56.30
2018-02-05T06:46:18.974Z,56.40
2018-02-05T06:48:47.266Z,56.60
2018-02-05T06:51:26.536Z,56.60
2018-02-05T06:54:06.680Z,56.20
2018-02-05T06:56:35.418Z,56.20
2018-02-05T06:59:04.781Z,56.50
2018-02-05T07:01:32.305Z,56.40
2018-02-05T07:03:59.859Z,56.40
2018-02-05T07:06:27.391Z,56.60
2018-02-05T07:08:54.918Z,56.70
2018-02-05T07:11:22.444Z,56.80
2018-02-05T07:13:49.966Z,57.00
2018-02-05T07:16:17.525Z,56.90
2018-02-05T07:18:45.055Z,56.90
2018-02-05T07:21:12.593Z,57.10
2018-02-05T07:23:40.120Z,57.00
2018-02-05T07:26:08.435Z,57.00
2018-02-05T07:28:35.991Z,57.00
2018-02-05T07:31:03.524Z,57.20
2018-02-05T07:33:31.818Z,57.40
2018-02-05T07:35:59.363Z,57.40
2018-02-05T07:38:27.651Z,57.50
2018-02-05T07:40:55.207Z,57.60
2018-02-05T07:43:22.763Z,57.60
2018-02-05T07:45:50.290Z,57.60
2018-02-05T07:48:17.823Z,57.70
2018-02-05T07:50:46.099Z,57.60
2018-02-05T07:53:13.659Z,57.70
2018-02-05T07:55:41.194Z,57.50
2018-02-05T07:58:08.725Z,57.50
2018-02-05T08:00:37.024Z,57.60
2018-02-05T08:03:04.562Z,57.60
2018-02-05T08:05:32.879Z,57.50
2018-02-05T08:08:00.432Z,57.40
2018-02-05T08:10:28.756Z,57.50
2018-02-05T08:12:56.289Z,57.20
2018-02-05T08:15:23.859Z,57.20
2018-02-05T08:17:51.391Z,57.20
2018-02-05T08:20:18.931Z,56.90
2018-02-05T08:22:46.470Z,56.90
2018-02-05T08:25:14.771Z,56.50
2018-02-05T08:27:42.338Z,56.50
2018-02-05T08:30:09.875Z,56.50
2018-02-05T08:32:38.166Z,56.30
2018-02-05T08:35:05.698Z,56.30
2018-02-05T08:37:33.999Z,56.00
2018-02-05T08:40:02.315Z,55.90
2018-02-05T08:42:29.842Z,55.90
2018-02-05T08:44:57.374Z,55.80
2018-02-05T08:47:25.679Z,55.80
2018-02-05T08:49:53.223Z,55.70
2018-02-05T08:52:21.547Z,55.70
2018-02-05T08:54:49.843Z,55.40
2018-02-05T08:57:17.377Z,55.40
2018-02-05T08:59:44.912Z,55.30
2018-02-05T09:02:12.446Z,55.20
2018-02-05T09:05:01.790Z,55.20
2018-02-05T09:07:29.322Z,55.20
2018-02-05T09:09:56.855Z,55.10
2018-02-05T09:12:25.147Z,54.80
2018-02-05T09:14:52.690Z,54.80
2018-02-05T09:17:21.013Z,54.60
2018-02-05T09:19:48.562Z,54.50
2018-02-05T09:22:16.099Z,54.40
2018-02-05T09:24:43.639Z,54.10
2018-02-05T09:27:11.940Z,53.90
2018-02-05T09:29:39.502Z,53.90
2018-02-05T09:32:07.031Z,54.10
2018-02-05T09:34:35.332Z,53.80
2018-02-05T09:37:02.879Z,53.80
2018-02-05T09:39:31.174Z,53.40
2018-02-05T09:41:58.741Z,53.40
2018-02-05T09:44:26.289Z,53.10
2018-02-05T09:46:53.855Z,53.00
2018-02-05T09:49:21.399Z,52.60
2018-02-05T09:51:49.703Z,52.70
2018-02-05T09:54:17.262Z,52.60
2018-02-05T09:56:44.788Z,52.70
2018-02-05T09:59:13.088Z,52.50
2018-02-05T10:01:40.621Z,53.00
2018-02-05T10:04:08.919Z,52.40
2018-02-05T10:06:36.493Z,52.40
2018-02-05T10:09:04.042Z,52.20
2018-02-05T10:11:31.579Z,52.00
2018-02-05T10:13:59.883Z,51.70
2018-02-05T10:16:27.422Z,51.80
2018-02-05T10:18:55.754Z,51.50
2018-02-05T10:21:23.297Z,52.00
2018-02-05T10:23:50.834Z,51.20
2018-02-05T10:26:18.366Z,51.20
2018-02-05T10:28:46.679Z,50.90
2018-02-05T10:31:14.250Z,50.80
2018-02-05T10:33:41.782Z,50.50
2018-02-05T10:36:09.404Z,50.50
2018-02-05T10:38:36.935Z,50.30
2018-02-05T10:41:04.559Z,50.20
2018-02-05T10:43:32.107Z,50.10
2018-02-05T10:46:11.341Z,50.60
2018-02-05T10:48:39.661Z,50.00
2018-02-05T10:51:07.368Z,49.90
2018-02-05T10:53:34.908Z,49.90
2018-02-05T10:56:02.526Z,50.00
2018-02-05T10:58:30.201Z,50.00
2018-02-05T11:00:57.819Z,50.00
2018-02-05T11:03:25.376Z,50.00
2018-02-05T11:05:53.414Z,50.00
2018-02-05T11:08:21.927Z,49.80
2018-02-05T11:10:49.500Z,49.80
2018-02-05T11:13:17.979Z,49.70
2018-02-05T11:15:45.599Z,49.80
2018-02-05T11:18:13.149Z,49.90
2018-02-05T11:20:40.679Z,49.90
2018-02-05T11:23:08.987Z,50.70
2018-02-05T11:25:36.535Z,50.10
2018-02-05T11:28:04.107Z,50.10
2018-02-05T11:30:32.413Z,50.10
2018-02-05T11:33:00.557Z,50.20
2018-02-05T11:35:28.088Z,50.20
2018-02-05T11:37:56.383Z,50.20
2018-02-05T11:40:23.915Z,50.20
2018-02-05T11:42:51.451Z,50.40
2018-02-05T11:45:18.983Z,50.30
2018-02-05T11:47:47.275Z,49.90
2018-02-05T11:50:14.814Z,49.90
2018-02-05T11:52:42.360Z,50.00
2018-02-05T11:55:09.909Z,49.90
2018-02-05T11:57:37.446Z,49.70
2018-02-05T12:00:05.755Z,49.80
2018-02-05T12:02:33.295Z,49.70
2018-02-05T12:05:01.595Z,50.10
2018-02-05T12:07:29.908Z,50.20
2018-02-05T12:09:57.455Z,50.20
2018-02-05T12:12:24.993Z,50.30
2018-02-05T12:14:52.537Z,50.30
2018-02-05T12:17:20.849Z,50.30
2018-02-05T12:19:48.389Z,50.30
2018-02-05T12:22:15.950Z,49.80
2018-02-05T12:24:43.485Z,50.20
2018-02-05T12:27:11.798Z,49.70
2018-02-05T12:29:39.336Z,49.60
2018-02-05T12:32:07.757Z,49.60
2018-02-05T12:34:35.299Z,49.70
2018-02-05T12:37:02.867Z,49.90
2018-02-05T12:39:30.398Z,50.70
2018-02-05T12:41:57.931Z,51.10
2018-02-05T12:44:26.357Z,51.50
2018-02-05T12:46:53.891Z,51.50
2018-02-05T12:49:22.193Z,52.70
2018-02-05T12:51:49.787Z,52.70
2018-02-05T12:54:17.328Z,52.90
2018-02-05T12:56:44.874Z,53.10
2018-02-05T12:59:12.411Z,52.60
2018-02-05T13:01:42.758Z,53.10
2018-02-05T13:07:22.920Z,53.00
2018-02-05T13:09:50.475Z,53.60
2018-02-05T13:12:18.012Z,53.90
2018-02-05T13:14:52.081Z,54.20
2018-02-05T13:17:20.434Z,54.20
2018-02-05T13:19:48.128Z,54.20
2018-02-05T13:22:15.695Z,54.10
2018-02-05T13:24:43.230Z,54.40
2018-02-05T13:27:10.789Z,54.00
2018-02-05T13:29:39.089Z,54.10
2018-02-05T13:32:06.627Z,54.00
2018-02-05T13:34:34.163Z,54.20
2018-02-05T13:37:03.321Z,54.50
2018-02-05T13:39:32.236Z,54.40
2018-02-05T13:42:00.538Z,54.00
2018-02-05T13:44:30.295Z,54.00
2018-02-05T13:46:57.833Z,54.20
2018-02-05T13:49:25.740Z,54.20
2018-02-05T13:51:53.287Z,53.70
2018-02-05T13:54:20.815Z,53.40
2018-02-05T13:56:52.880Z,53.90
2018-02-05T13:59:20.432Z,53.90
2018-02-05T14:01:48.028Z,53.60
2018-02-05T14:04:15.569Z,53.90
2018-02-05T14:06:43.158Z,53.70
2018-02-05T14:09:10.770Z,53.90
2018-02-05T14:11:38.304Z,54.10
2018-02-05T14:14:06.599Z,53.40
2018-02-05T14:16:34.144Z,53.40
2018-02-05T14:19:14.223Z,53.90
2018-02-05T14:21:41.799Z,53.90
2018-02-05T14:24:16.256Z,53.60
2018-02-05T14:26:43.814Z,53.70
2018-02-05T14:29:11.354Z,53.80
2018-02-05T14:31:38.879Z,54.10
2018-02-05T14:34:06.412Z,54.20
2018-02-05T14:36:34.710Z,55.40
2018-02-05T14:39:02.331Z,55.40
2018-02-05T14:41:29.922Z,60.20
2018-02-05T14:43:58.266Z,62.90
2018-02-05T14:46:25.807Z,62.90
2018-02-05T14:48:53.353Z,63.40
2018-02-05T14:51:20.935Z,62.40
2018-02-05T14:53:48.480Z,64.10
2018-02-05T14:56:16.016Z,61.90
2018-02-05T14:58:43.557Z,60.00
2018-02-05T15:01:11.869Z,61.80
2018-02-05T15:03:53.307Z,61.80
2018-02-05T15:06:20.852Z,62.50
2018-02-05T15:08:48.391Z,61.10
2018-02-05T15:11:15.928Z,59.70
2018-02-05T15:13:43.467Z,59.20
2018-02-05T15:16:11.799Z,58.80
2018-02-05T15:18:39.332Z,58.30
2018-02-05T15:21:06.874Z,58.30
2018-02-05T15:23:34.403Z,57.90
2018-02-05T15:26:02.712Z,57.90
2018-02-05T15:28:30.266Z,57.30
2018-02-05T15:30:57.804Z,57.60
2018-02-05T15:33:26.106Z,57.50
2018-02-05T15:35:55.607Z,57.50
2018-02-05T15:38:23.906Z,56.80
2018-02-05T15:40:51.470Z,56.80
2018-02-05T15:43:25.335Z,56.70
2018-02-05T15:45:53.665Z,56.70
2018-02-05T15:48:21.202Z,56.70
2018-02-05T15:50:48.743Z,56.80
2018-02-05T15:53:17.051Z,56.60
2018-02-05T15:55:44.591Z,56.50
2018-02-05T15:58:12.147Z,56.70
2018-02-05T16:00:40.451Z,56.10
2018-02-05T16:03:07.996Z,56.10
2018-02-05T16:05:35.531Z,56.70
2018-02-05T16:08:07.312Z,56.90
2018-02-05T16:10:34.884Z,56.80
2018-02-05T16:13:02.411Z,56.80
2018-02-05T16:15:30.710Z,56.40
2018-02-05T16:17:58.254Z,56.40
2018-02-05T16:20:26.577Z,56.60
2018-02-05T16:22:54.156Z,56.50
2018-02-05T16:25:21.820Z,56.60
2018-02-05T16:27:49.366Z,56.60
2018-02-05T16:30:16.944Z,56.70
2018-02-05T16:32:44.543Z,56.40
2018-02-05T16:35:12.142Z,56.50
2018-02-05T16:37:39.721Z,56.50
2018-02-05T16:40:07.270Z,56.30
2018-02-05T16:42:34.937Z,56.20
2018-02-05T16:45:02.482Z,56.50
2018-02-05T16:47:30.048Z,56.30
2018-02-05T16:49:57.763Z,56.50
2018-02-05T16:52:26.076Z,56.10
2018-02-05T16:54:53.616Z,56.10
2018-02-05T16:57:21.211Z,56.50
2018-02-05T16:59:48.773Z,56.40
2018-02-05T17:02:16.655Z,56.20
2018-02-05T17:04:44.450Z,56.40
2018-02-05T17:07:12.802Z,56.90
2018-02-05T17:09:40.485Z,56.40
2018-02-05T17:12:08.076Z,56.20
2018-02-05T17:14:35.615Z,56.10
2018-02-05T17:17:03.936Z,56.10
2018-02-05T17:19:31.484Z,56.10
2018-02-05T17:21:59.020Z,55.80
2018-02-05T17:24:27.403Z,55.80
2018-02-05T17:26:55.710Z,55.80
2018-02-05T17:29:23.278Z,55.70
2018-02-05T17:31:50.810Z,55.60
2018-02-05T17:34:19.108Z,55.60
2018-02-05T17:36:50.114Z,55.40
2018-02-05T17:39:17.747Z,55.10
2018-02-05T17:41:45.300Z,55.50
2018-02-05T17:44:12.834Z,55.20
2018-02-05T17:46:40.372Z,55.50
2018-02-05T17:49:07.911Z,55.30
2018-02-05T17:51:36.216Z,55.50
2018-02-05T17:54:05.228Z,55.40
2018-02-05T17:56:33.583Z,55.60
2018-02-05T17:59:01.211Z,55.60
2018-02-05T18:01:28.874Z,55.60
2018-02-05T18:03:57.215Z,56.00
2018-02-05T18:06:24.854Z,55.50
2018-02-05T18:08:52.406Z,55.40
2018-02-05T18:11:19.944Z,55.50
2018-02-05T18:13:48.247Z,55.30
2018-02-05T18:16:15.787Z,55.20
2018-02-05T18:18:44.123Z,55.50
2018-02-05T18:21:11.660Z,55.40
2018-02-05T18:23:39.195Z,55.20
2018-02-05T18:26:06.731Z,55.20
2018-02-05T18:28:34.275Z,55.10
2018-02-05T18:31:01.848Z,55.20
2018-02-05T18:33:29.390Z,55.30
2018-02-05T18:36:01.561Z,55.70
2018-02-05T18:38:29.104Z,55.30
2018-02-05T18:41:06.759Z,55.40
2018-02-05T18:43:35.060Z,55.20
2018-02-05T18:46:02.596Z,55.20
2018-02-05T18:48:30.154Z,55.30
2018-02-05T18:50:59.362Z,55.30
2018-02-05T18:55:54.807Z,55.20
2018-02-05T18:58:22.356Z,55.20
2018-02-05T19:00:52.722Z,55.30
2018-02-05T19:03:21.195Z,55.30
2018-02-05T19:05:54.863Z,55.60
2018-02-05T19:08:22.424Z,55.70
2018-02-05T19:10:49.959Z,55.60
2018-02-05T19:13:18.258Z,55.60
2018-02-05T19:15:46.508Z,55.50
2018-02-05T19:18:14.847Z,55.60
2018-02-05T19:20:42.398Z,55.50
2018-02-05T19:23:09.972Z,55.60
2018-02-05T19:25:37.547Z,55.60
2018-02-05T19:28:05.098Z,55.50
2018-02-05T19:30:32.639Z,55.50
2018-02-05T19:33:00.233Z,55.60
2018-02-05T19:35:31.233Z,55.70
2018-02-05T19:37:58.775Z,55.60
2018-02-05T19:40:26.311Z,55.30
2018-02-05T19:42:54.636Z,55.20
2018-02-05T19:45:22.176Z,55.20
2018-02-05T19:47:49.764Z,55.10
2018-02-05T19:50:20.602Z,55.10
2018-02-05T19:52:48.220Z,55.10
2018-02-05T19:55:16.939Z,54.90
2018-02-05T19:57:48.014Z,54.80
2018-02-05T20:00:15.655Z,55.20
2018-02-05T20:02:43.303Z,54.70
2018-02-05T20:05:10.879Z,55.20
2018-02-05T20:07:42.037Z,55.10
2018-02-05T20:10:09.606Z,55.10
2018-02-05T20:12:37.969Z,54.90
2018-02-05T20:15:05.643Z,55.20
2018-02-05T20:17:33.188Z,55.10
2018-02-05T20:20:00.762Z,54.70
2018-02-05T20:22:28.345Z,54.70
2018-02-05T20:24:55.908Z,54.70
2018-02-05T20:27:24.272Z,54.80
2018-02-05T20:29:51.839Z,54.60
2018-02-05T20:32:19.379Z,54.70
2018-02-05T20:34:46.966Z,54.80
2018-02-05T20:37:15.311Z,55.00
2018-02-05T20:39:42.896Z,54.90
2018-02-05T20:42:10.436Z,54.90
2018-02-05T20:44:38.048Z,54.90
2018-02-05T20:47:06.389Z,54.90
2018-02-05T20:49:33.935Z,54.90
2018-02-05T20:52:01.518Z,54.80
2018-02-05T20:54:29.059Z,54.90
2018-02-05T20:56:58.529Z,54.90
2018-02-05T20:59:26.070Z,54.90
2018-02-05T21:01:54.392Z,55.00
2018-02-05T21:04:31.783Z,54.90
2018-02-05T21:07:19.947Z,54.90
2018-02-05T21:09:47.500Z,54.90
2018-02-05T21:12:20.687Z,55.00
2018-02-05T21:14:48.267Z,54.80
2018-02-05T21:17:26.968Z,55.00
2018-02-05T21:19:54.533Z,54.90
2018-02-05T21:22:23.730Z,54.70
2018-02-05T21:24:53.044Z,54.80
2018-02-05T21:27:20.668Z,54.80
2018-02-05T21:29:48.280Z,54.80
2018-02-05T21:32:15.849Z,54.70
2018-02-05T21:34:44.163Z,54.60
2018-02-05T21:37:12.634Z,54.60
2018-02-05T21:39:40.174Z,54.60
2018-02-05T21:42:07.718Z,54.60
2018-02-05T21:44:35.288Z,54.60
2018-02-05T21:47:03.596Z,54.70
2018-02-05T21:49:31.149Z,54.70
2018-02-05T21:51:58.691Z,54.60
2018-02-05T21:54:26.995Z,54.40
2018-02-05T21:59:57.115Z,54.40
2018-02-05T22:02:25.443Z,54.40
2018-02-05T22:04:52.984Z,54.30
2018-02-05T22:07:20.526Z,54.40
2018-02-05T22:09:48.074Z,54.40
2018-02-05T22:12:16.389Z,54.20
2018-02-05T22:14:43.960Z,54.20
2018-02-05T22:17:11.501Z,54.20
2018-02-05T22:19:39.034Z,54.10
2018-02-05T22:22:07.340Z,54.10
2018-02-05T22:24:34.886Z,54.10
2018-02-05T22:27:02.459Z,54.00
2018-02-05T22:29:30.004Z,54.00
2018-02-05T22:31:57.554Z,53.90
2018-02-05T22:34:25.857Z,53.90
2018-02-05T22:36:53.388Z,53.90
2018-02-05T22:39:21.715Z,53.90
2018-02-05T22:41:49.255Z,53.80
2018-02-05T22:44:16.791Z,53.70
2018-02-05T22:46:44.334Z,53.70
2018-02-05T22:49:12.638Z,53.60
2018-02-05T22:51:40.195Z,53.60
2018-02-05T22:54:07.731Z,53.70
2018-02-05T22:56:36.036Z,53.60
2018-02-05T22:59:03.626Z,53.60
2018-02-05T23:01:31.136Z,53.60
2018-02-05T23:03:59.451Z,53.60
2018-02-05T23:06:26.984Z,53.60
2018-02-05T23:08:54.510Z,53.50
2018-02-05T23:11:22.050Z,53.50
2018-02-05T23:13:49.572Z,53.40
2018-02-05T23:16:17.144Z,53.30
2018-02-05T23:18:44.670Z,53.30
2018-02-05T23:21:12.981Z,53.30
2018-02-05T23:23:40.519Z,53.30
2018-02-05T23:26:09.999Z,53.30
2018-02-05T23:28:38.338Z,53.20
2018-02-05T23:31:05.883Z,53.20
2018-02-05T23:33:33.428Z,53.10
2018-02-05T23:36:00.997Z,53.20
2018-02-05T23:38:28.527Z,53.10
2018-02-05T23:40:56.825Z,53.10
2018-02-05T23:43:24.379Z,53.10
2018-02-05T23:45:51.961Z,53.10
2018-02-05T23:48:19.518Z,53.10
2018-02-05T23:50:47.071Z,52.90
2018-02-05T23:53:14.603Z,52.90
2018-02-05T23:55:42.912Z,53.00
2018-02-05T23:58:10.476Z,52.90
